Accueil
METAR-TAF:

METAR-TAF

Aéroports :

Aéroport de Lydd

Lydd, Angleterre

latitude: 50-57N, longitude: 000-56E, altitude: 3 m

Observation

Le bulletin a été fait il y a 35 minutes, à 18:50 UTC
Vent 5 kt de nord/nord-est
Température 8°C
Humidité 93%
Pression 1027 hPa
Visibilité 10 km ou plus

METAR: EGMD 191850Z AUTO 03005KT 9999 NCD 08/07 Q1027

Heure: 20:25 (19:25 UTC)

Prévision

Le bulletin a été fait il y a 2 heures et 18 minutes, à 17:07 UTC
Prévision valable du 19 à 18 UTC au 20 à 03 UTC
Vent 5 kt de nord-est
Visibilité 10 km ou plus
Quelques nuages à une hauteur de 2000 ft
Evoluant progressivement
du 19 à 21 UTC au 19 à 24 UTC
Visibilité: 6000 m
Probabilité 40%
du 20 à 00 UTC au 20 à 03 UTC
Visibilité: 3000 m
brume

TAF: EGMD 191707Z 1918/2003 05005KT 9999 FEW020 BECMG 1921/1924 6000 PROB40 2000/2003 3000 BR

Observations et prévisions météorologiques de plus de 4000 aéroports (messages METAR et TAF).

Les stations disponibles sont représentées par des disques jaunes et rouges sur la carte.

Passer la souris dessus pour voir le nom de la station.

Cliquer dessus pour voir les observations et prévisions météorologiques.

Pour changer de carte: cliquez sur les boutons verts avec une croix noire pour zoomer, sur le bouton vert avec un tiret pour effectuer un zoom arrière, ou sur les flèches vertes pour les cartes adjacentes.


METAR-TAF: